createdAt,value
2023-12-15T00:02:12.308Z,2.18
2023-12-15T00:04:39.456Z,2.17
2023-12-15T00:07:06.546Z,2.16
2023-12-15T00:09:33.650Z,2.10
2023-12-15T00:12:00.745Z,2.11
2023-12-15T00:14:27.904Z,2.08
2023-12-15T00:16:55.070Z,2.06
2023-12-15T00:19:22.341Z,2.07
2023-12-15T00:21:49.526Z,2.08
2023-12-15T00:24:16.646Z,2.06
2023-12-15T00:26:44.045Z,2.02
2023-12-15T00:29:11.136Z,2.00
2023-12-15T00:31:38.273Z,1.95
2023-12-15T00:34:05.462Z,1.92
2023-12-15T00:36:32.736Z,1.86
2023-12-15T00:39:00.191Z,1.84
2023-12-15T00:41:27.503Z,1.76
2023-12-15T00:43:55.005Z,1.74
2023-12-15T00:46:22.145Z,1.70
2023-12-15T00:48:49.324Z,1.63
2023-12-15T00:51:16.533Z,1.62
2023-12-15T00:53:43.649Z,1.54
2023-12-15T00:56:10.964Z,1.52
2023-12-15T00:58:38.103Z,1.46
2023-12-15T01:01:06.595Z,1.37
2023-12-15T01:03:33.766Z,1.35
2023-12-15T01:06:00.942Z,1.29
2023-12-15T01:08:28.197Z,1.27
2023-12-15T01:10:55.356Z,1.21
2023-12-15T01:13:22.485Z,1.17
2023-12-15T01:15:49.610Z,1.12
2023-12-15T01:18:16.865Z,1.10
2023-12-15T01:20:44.110Z,1.06
2023-12-15T01:23:11.345Z,1.06
2023-12-15T01:25:38.532Z,1.01
2023-12-15T01:28:05.642Z,0.98
2023-12-15T01:30:32.762Z,1.02
2023-12-15T01:32:59.883Z,1.03
2023-12-15T01:35:27.317Z,1.00
2023-12-15T01:37:54.407Z,0.93
2023-12-15T01:40:21.558Z,0.89
2023-12-15T01:42:48.700Z,0.86
2023-12-15T01:45:15.840Z,0.81
2023-12-15T01:47:44.017Z,0.83
2023-12-15T01:50:11.448Z,0.78
2023-12-15T01:52:38.608Z,0.76
2023-12-15T01:55:05.837Z,0.83
2023-12-15T01:57:32.960Z,0.78
2023-12-15T02:00:01.082Z,0.75
2023-12-15T02:02:28.380Z,0.69
2023-12-15T02:04:55.691Z,0.60
2023-12-15T02:07:22.775Z,0.56
2023-12-15T02:09:49.852Z,0.51
2023-12-15T02:12:16.942Z,0.51
2023-12-15T02:14:44.451Z,0.53
2023-12-15T02:17:11.682Z,0.56
2023-12-15T02:19:38.887Z,0.59
2023-12-15T02:22:05.961Z,0.62
2023-12-15T02:24:33.079Z,0.63
2023-12-15T02:27:00.171Z,0.61
2023-12-15T02:29:28.818Z,0.64
2023-12-15T02:31:56.233Z,0.67
2023-12-15T02:34:26.114Z,0.69
2023-12-15T02:36:53.634Z,0.67
2023-12-15T02:39:20.739Z,0.66
2023-12-15T02:41:47.906Z,0.64
2023-12-15T02:44:15.076Z,0.65
2023-12-15T02:46:42.180Z,0.69
2023-12-15T02:49:11.568Z,0.70
2023-12-15T02:51:38.684Z,0.70
